Warm Springs Summit, Nevada Weather observations

Data are for observation ending at time listed.
 Day   Time    Ave.   Ave.  Ave.  Vector   Max.   Stn.    Total    Solar   Ave.  
  of    of     Air    Rel.  Wind   Wind    Wind   Baro.  Precip.   Rad.    Soil  
Year   Day     Temp.  Hum.  Speed  Dir.    Gust   Pres.                    Temp. 
2014   (PST)    F      %     mph   deg.    mph     mb.     in.     W/m2     F   
------------------------------------------------------------------------------
 262   16:20   71.0    18   14.2   120     21.5   773.7    0.00     279    75.9
 262   16:30   70.9    17   15.8   125     22.0   773.7    0.00     244    75.9
 262   16:40   70.5    17   13.3   112     18.4   773.8    0.00     207    76.0
 262   16:50   69.8    17   13.6   116     19.9   773.8    0.00     175    76.0
 262   17:00   69.6    17   12.7   128     18.1   773.8    0.00     123    76.0
 262   17:10   69.5    17    9.8   110     14.4   773.9    0.00     104    76.0
 262   17:20   68.9    18    9.7   103     13.1   773.9    0.00      62    76.0
 262   17:30   68.5    18   11.0   108     14.4   774.0    0.00      35    76.0
 262   17:40   68.2    18   12.1   134     14.6   773.9    0.00      10    76.0
 262   17:50   67.8    18   12.4   123     16.5   774.0    0.00       3    75.9
 262   18:00   67.4    18   12.5   116     16.6   774.0    0.00       1    75.9
 262   18:10   67.4    18   13.4   121     16.7   774.1    0.00       0    75.8
 262   18:20   67.3    18   11.0   127     13.3   774.2    0.00       0    75.7
 262   18:30   66.8    18    8.9   132     12.5   774.2    0.00       0    75.6
 262   18:40   67.1    19    9.8   136     14.5   774.3    0.00       0    75.5
 262   18:50   67.2    20   10.2   135     13.6   774.4    0.00       0    75.4
 262   19:00   67.1    20    9.9   137     14.2   774.5    0.00       0    75.3
 262   19:10   67.0    20   10.0   128     13.3   774.5    0.00       0    75.1
 262   19:20   67.0    20   10.7   132     13.4   774.6    0.00       0    75.0
 262   19:30   67.0    20   10.1   136     12.2   774.7    0.00       0    74.9
 262   19:40   66.9    21    9.7   137     13.2   774.8    0.00       0    74.8
 262   19:50   66.5    21    8.4   136     11.1   774.9    0.00       0    74.6
 262   20:00   66.2    22    8.3   153     10.9   774.9    0.00       0    74.5
 262   20:10   65.9    22    8.0   165      9.7   775.0    0.00       0    74.3
 262   20:20   66.1    22    7.5   166     10.2   775.0    0.00       0    74.2
 262   20:30   65.8    23    5.3   153     10.6   775.2    0.00       0    74.1
 262   20:40   64.7    25    5.0   277      9.8   775.2    0.00       0    73.9
 262   20:50   63.8    26    7.8   287     12.2   775.2    0.00       0    73.8
 262   21:00   63.3    27    9.1   282     14.1   775.2    0.00       0    73.6
 262   21:10   63.3    27   10.0   276     13.7   775.2    0.00       0    73.5
 262   21:20   62.9    28   10.0   279     12.7   775.3    0.00       0    73.4
 262   21:30   63.1    27    8.3   276     11.7   775.3    0.00       0    73.2
 262   21:40   63.6    27    7.9   275     11.2   775.3    0.00       0    73.1
 262   21:50   63.3    27    7.8   271     12.2   775.4    0.00       0    73.0
 262   22:00   62.9    27    7.4   274     10.6   775.4    0.00       0    72.8
 262   22:10   63.2    28    7.3   268      8.4   775.5    0.00       0    72.7
 262   22:20   63.1    27    8.0   275     10.3   775.4    0.00       0    72.5
 262   22:30   63.1    27    7.0   269      8.2   775.4    0.00       0    72.4
 262   22:40   63.1    27    7.2   270      8.0   775.5    0.00       0    72.2
 262   22:50   63.0    27    6.3   267      9.5   775.6    0.00       0    72.1
 262   23:00   62.7    28    7.2   258     10.5   775.6    0.00       0    72.0
 262   23:10   62.7    28    7.5   232     11.2   775.6    0.00       0    71.8
 262   23:20   62.7    28    8.1   250     11.1   775.7    0.00       0    71.7
 262   23:30   62.7    28    8.2   257     10.1   775.7    0.00       0    71.5
 262   23:40   62.6    28    7.8   256     11.8   775.7    0.00       0    71.4
 262   23:50   62.5    28    7.6   241     10.7   775.7    0.00       0    71.3
 263    0:00   63.0    28    6.4   215      9.7   775.7    0.00       0    71.2
 263    0:10   63.0    29    4.4   215      8.3   775.8    0.00       0    71.0
 263    0:20   62.7    29    4.2   234      7.1   775.7    0.00       0    70.9
 263    0:30   62.5    29    4.0   198      6.3   775.8    0.00       0    70.8
 263    0:40   62.4    30    6.1   158      7.9   775.8    0.00       0    70.6
 263    0:50   62.2    30    5.7   175      7.0   775.8    0.00       0    70.5
 263    1:00   62.6    30    6.3   190      7.3   775.8    0.00       0    70.4
 263    1:10   62.8    29    8.4   209     10.5   775.7    0.00       0    70.3
 263    1:20   63.3    28    8.5   189     10.9   775.7    0.00       0    70.2
 263    1:30   62.9    29    5.2   134      6.3   775.7    0.00       0    70.0
 263    1:40   62.5    30    4.4   109      5.3   775.7    0.00       0    69.9
 263    1:50   62.5    30    4.7    78      5.7   775.7    0.00       0    69.8
 263    2:00   61.4    30    5.5    46      7.5   775.7    0.00       0    69.7
 263    2:10   61.7    30    7.0    59      9.1   775.6    0.00       0    69.6
 263    2:20   61.3    30    6.0    48      7.1   775.6    0.00       0    69.5
 263    2:30   60.6    30    6.5    40      7.8   775.6    0.00       0    69.4
 263    2:40   60.2    30    6.8    34      9.0   775.7    0.00       0    69.3
 263    2:50   60.2    30    7.4    34      9.9   775.7    0.00       0    69.2
 263    3:00   60.5    30    8.2    41     10.9   775.6    0.00       0    69.1
 263    3:10   60.3    30    7.7    31     12.4   775.5    0.00       0    69.0
 263    3:20   60.4    30    8.2    36     13.0   775.6    0.00       0    68.9
 263    3:30   60.3    30    8.9    42     12.8   775.6    0.00       0    68.8
 263    3:40   60.0    31    9.0    45     12.8   775.7    0.00       0    68.7
 263    3:50   59.7    31    9.0    44     12.0   775.7    0.00       0    68.6
 263    4:00   59.3    32    9.5    44     13.8   775.7    0.00       0    68.5
 263    4:10   59.1    32    9.0    41     14.4   775.7    0.00       0    68.5
 263    4:20   59.3    32    9.8    46     13.1   775.8    0.00       0    68.4
 263    4:30   59.3    33    9.3    41     13.3   775.8    0.00       0    68.3
 263    4:40   59.4    33   10.3    48     13.6   775.8    0.00       0    68.2
 263    4:50   59.2    33   10.9    53     14.4   775.8    0.00       0    68.1
 263    5:00   59.4    33   12.8    57     16.7   775.8    0.00       0    68.1
 263    5:10   59.3    33   12.5    58     18.2   775.9    0.00       0    68.0
 263    5:20   59.3    33   11.7    54     16.3   776.1    0.00       1    67.9
 263    5:30   59.3    33   11.1    52     15.1   776.2    0.00       7    67.8
 263    5:40   59.2    33   10.6    52     14.9   776.2    0.00       4    67.8
 263    5:50   59.1    34    9.0    49     13.7   776.3    0.00       9    67.7
 263    6:00   59.4    34    9.8    63     13.5   776.5    0.00      26    67.6
 263    6:10   59.7    34    6.8    46     10.9   776.5    0.00      97    67.6
 263    6:20   59.7    34    5.9    38      8.7   776.5    0.00     103    67.5
 263    6:30   60.0    33    7.3    45     10.9   776.6    0.00      85    67.5
 263    6:40   60.2    34    7.7    60      9.7   776.7    0.00     105    67.4
 263    6:50   60.6    34    9.7    60     12.9   776.7    0.00      96    67.4
 263    7:00   60.2    34   10.6    50     13.9   776.6    0.00      73    67.3
 263    7:10   60.0    33    9.2    45     13.6   776.7    0.00      83    67.3
 263    7:20   60.0    34    8.9    35     12.3   776.6    0.00     119    67.2
 263    7:30   60.4    33    7.3    36     12.1   776.7    0.00     147    67.2
 263    7:40   62.2    32    7.0    36     10.4   776.8    0.00     414    67.2
 263    7:50   63.3    31    6.6    34      9.9   777.0    0.00     202    67.2
 263    8:00   61.4    33    7.3    30     10.9   777.0    0.00      79    67.1
 263    8:10   61.0    34    6.8    40     10.6   777.2    0.00      53    67.1
 263    8:20   60.5    41    8.0    23     14.5   777.0    0.00     193    67.1
 263    8:30   61.0    39    7.1    27     12.2   777.0    0.00     343    67.1
 263    8:40   62.6    35    7.3    43     10.9   777.0    0.00     591    67.1
 263    8:50   63.6    34    6.8    36     11.0   777.0    0.00     425    67.1
 263    9:00   61.8    35    6.5    43      9.6   777.2    0.00     149    67.1
 263    9:10   61.4    36    9.1    50     12.7   777.2    0.00     176    67.2
 263    9:20   61.1    37    7.7    56     12.1   777.5    0.00     106    67.2
 263    9:30   61.2    38    6.3    71      8.1   777.6    0.00      50    67.2
 263    9:40   61.5    39    4.6    73      6.4   777.4    0.00      65    67.2
 263    9:50   62.2    40    5.7   119      7.3   777.5    0.00      91    67.3
 263   10:00   62.5    40    2.0    81      5.3   777.4    0.00      77    67.3
 263   10:10   62.9    40    2.7    49      4.1   777.3    0.00     166    67.3
 263   10:20   64.7    36    4.0    35      8.4   777.3    0.00     815    67.4
 263   10:30   66.8    33    4.7    53      7.5   777.3    0.00     699    67.4
 263   10:40   67.7    32    4.7    76      9.4   777.2    0.00     702    67.4
 263   10:50   68.8    32    3.9   118      8.7   777.3    0.00     718    67.4
 263   11:00   66.7    34    4.3    87      9.1   777.3    0.00     224    67.5
 263   11:10   66.2    33    5.4   150      9.0   777.2    0.00     170    67.5
 263   11:20   65.8    36    6.7   281     13.2   776.9    0.00     419    67.6
 263   11:30   66.0    37    8.9   272     13.1   777.0    0.00     702    67.7
 263   11:40   65.5    38    8.5   272     13.1   777.1    0.00     617    67.8
 263   11:50   66.7    36    2.4   304      8.1   777.0    0.00     342    68.0
 263   12:00   65.7    37    5.8   242      9.7   777.0    0.00     125    68.1
 263   12:10   65.1    38    3.7   241      8.0   777.0    0.00      80    68.3
 263   12:20   64.3    41    5.9   242      8.6   776.8    0.00     109    68.4
 263   12:30   64.2    42    4.7   267      9.1   776.7    0.00     162    68.5
 263   12:40   65.1    44    4.2   283      7.3   776.5    0.00     410    68.7
 263   12:50   66.7    41    3.0   277      6.0   776.4    0.00     570    68.8
 263   13:00   68.9    38    3.0   248      6.5   776.2    0.00     576    69.0
 263   13:10   71.4    35    3.0   315      9.6   776.2    0.00     705    69.1
 263   13:20   71.3    34    4.6   168      8.7   776.1    0.00     679    69.2
 263   13:30   72.6    32    5.4   126     12.2   776.0    0.00     808    69.3
 263   13:40   71.2    34   10.3   141     17.3   775.9    0.00     630    69.4
 263   13:50   69.9    35   10.9   151     16.5   775.7    0.00     397    69.5
 263   14:00   69.1    35    9.3   138     16.7   775.7    0.00     344    69.6
 263   14:10   69.7    35   11.7   182     17.7   775.5    0.00     320    69.8
 263   14:20   68.5    36    8.0   143     14.7   775.3    0.00     295    69.9
 263   14:30   69.1    36    9.8   157     14.2   775.2    0.00     275    70.1
 263   14:40   69.0    36    7.3   198     11.1   775.1    0.00     296    70.2
 263   14:50   68.7    36    8.5   211     13.0   775.1    0.00     280    70.4
 263   15:00   68.5    37    9.9   217     14.5   775.0    0.00     247    70.5
 263   15:10   67.9    40   10.2   218     15.7   774.9    0.00     225    70.6
 263   15:20   67.5    41   11.2   243     16.9   775.0    0.00     214    70.8
 263   15:30   67.1    41   13.5   269     17.5   774.9    0.00     193    70.9
 263   15:40   66.7    42   16.6   281     21.7   774.8    0.00     167    71.0
 263   15:50   66.1    43   19.8   284     22.9   774.6    0.00     124    71.0
 263   16:00   65.5    44   20.0   280     24.6   774.5    0.00     107    71.1
 263   16:10   65.3    44   21.4   279     25.9   774.4    0.00     100    71.2

Return to Warm Springs Summit, Nevada graphs page.


Western Regional Climate Center,wrcc@dri.edu